• Join FlightAware (Why Join?)
  • Login
  • US Flag 
11:18PM EDT


 

Airport Tracker/Info


-or-


 

Live Flight TrackerFlight Track Log ✈ EJA396 ✈ 28-Apr-2013 ✈ KBTV - KMVY

Flight Track Log - Related Links

Times and Time Zones

All times are in EDT time to prevent confusion due to time zone crossing. See the EJA396 flight status page for this flight to view local times or setup timezone preferences in your user account.

Time Position Orientation Groundspeed Altitude Reporting Facility
EDT Latitude Longitude Course Direction KTS MPH feet Rate Location/Type
09:44AM 44.3872 -72.9861 134° Southeast 274 315 7,700  Level Boston Center
09:45AM 44.3167 -72.9103 142° Southeast 282 325 9,900 1,140 Climbing Boston Center
09:46AM 44.2461 -72.8283 140° Southeast 311 358 10,000  Climbing Boston Center
09:47AM 44.1692 -72.7469 143° Southeast 343 395 10,000  Level Boston Center
09:48AM 44.0264 -72.6923 134° Southeast  Level FlightAware Approximate
09:48AM 44.0861 -72.6569 142° Southeast 348 400 10,000  Level Boston Center
09:49AM 43.9646 -72.6041 134° Southeast  Level FlightAware Approximate
09:49AM 44.0092 -72.5758 143° Southeast 343 395 10,000  Level Boston Center
09:50AM 43.9425 -72.5006 141° Southeast 343 395 10,000  Level Boston Center
09:51AM 43.8656 -72.4200 143° Southeast 349 402 10,000  Level Boston Center
09:52AM 43.7883 -72.3367 142° Southeast 349 402 10,000  Level Boston Center
09:53AM 43.7111 -72.2533 142° Southeast 349 402 10,000  Level Boston Center
09:54AM 43.6381 -72.1619 138° Southeast 349 402 10,000  Level Boston Center
09:55AM 43.5731 -72.0675 134° Southeast 349 402 10,000  Level Boston Center
09:56AM 43.5061 -71.9764 135° Southeast 344 396 10,000  Level Boston Center
09:57AM 43.4369 -71.8797 135° Southeast 344 396 10,000  Level Boston Center
09:58AM 43.3761 -71.7975 135° Southeast 349 402 10,000  Level Boston Center
09:59AM 43.3025 -71.6897 133° Southeast 349 402 10,000  Level Boston Center
10:00AM 43.2206 -71.5997 141° Southeast 349 402 10,000  Level Boston Center
10:00AM 43.1833 -71.5667 147° Southeast 349 402 10,000  Level KA90
10:01AM 43.1000 -71.5000 150° Southeast 349 402 10,000  Level KA90
10:02AM 43.0486 -71.4769 162° South 349 402 10,000  Level Boston Center
10:03AM 42.9731 -71.4214 152° Southeast 343 395 10,000  Level Boston Center
10:04AM 42.8767 -71.3550 153° Southeast 348 400 10,000  Level Boston Center
10:04AM 42.8333 -71.3167 147° Southeast 350 403 10,000  Level KA90
10:05AM 42.7886 -71.3028 167° South 348 400 10,000  Level Boston Center
10:06AM 42.6964 -71.2564 160° South 348 400 10,000  Level Boston Center
10:07AM 42.6022 -71.2075 159° South 359 413 10,000  Level Boston Center
10:07AM 42.5667 -71.1833 153° Southeast 353 406 10,000  Level KA90
10:08AM 42.4833 -71.1167 149° Southeast 351 404 10,000  Level KA90
10:09AM 42.4000 -71.0500 149° Southeast 349 402 10,000  Level KA90
10:10AM 42.3000 -70.9833 154° Southeast 350 403 10,000  Level KA90
10:11AM 42.2167 -70.9333 156° South 346 398 10,000  Level KA90
10:12AM 42.1333 -70.9000 163° South 348 400 10,000  Level KA90
10:13AM 42.0167 -70.8667 168° South 348 400 10,000  Level KA90
10:14AM 41.9333 -70.8333 163° South 350 403 10,000  Level KA90
10:16AM 41.7991 -70.7995 160° South  Level FlightAware Approximate
10:23AM 41.3934 -70.6139 North  Level Estimated
10:24AM 41.3934 -70.6139 North  Level Estimated
10:25AM 41.3934 -70.6139 North  Level Estimated
10:26AM 41.3934 -70.6139 North  Level Estimated
10:27AM 41.3934 -70.6139 North  Level Estimated
10:28AM 41.3934 -70.6139 North  Level Estimated
10:29AM 41.3934 -70.6139 North  Level Estimated
10:30AM 41.3934 -70.6139 North  Level Estimated